sensor_id;sensor_type;location;lat;lon;timestamp;pressure;altitude;pressure_sealevel;temperature;humidity
7824;BME280;3957;48.61947800;9.05303100;2023-02-12T00:00:12;97936.13;;;1.94;100.00
7824;BME280;3957;48.61947800;9.05303100;2023-02-12T00:01:18;97928.84;;;1.98;100.00
7824;BME280;3957;48.61947800;9.05303100;2023-02-12T00:02:19;97933.25;;;1.97;100.00
7824;BME280;3957;48.61947800;9.05303100;2023-02-12T00:03:19;97932.44;;;1.97;100.00
7824;BME280;3957;48.61947800;9.05303100;2023-02-12T00:04:20;97928.19;;;1.94;100.00
7824;BME280;3957;48.61947800;9.05303100;2023-02-12T00:05:20;97936.13;;;1.94;100.00
7824;BME280;3957;48.61947800;9.05303100;2023-02-12T00:06:20;97929.91;;;1.95;100.00
7824;BME280;3957;48.61947800;9.05303100;2023-02-12T00:07:21;97930.72;;;1.96;100.00
7824;BME280;3957;48.61947800;9.05303100;2023-02-12T00:08:22;97924.63;;;1.95;100.00
7824;BME280;3957;48.61947800;9.05303100;2023-02-12T00:09:22;97928.94;;;1.96;100.00
7824;BME280;3957;48.61947800;9.05303100;2023-02-12T00:10:23;97920.91;;;1.98;100.00
7824;BME280;3957;48.61947800;9.05303100;2023-02-12T00:11:26;97926.19;;;1.98;100.00
7824;BME280;3957;48.61947800;9.05303100;2023-02-12T00:12:27;97927.88;;;1.99;100.00
7824;BME280;3957;48.61947800;9.05303100;2023-02-12T00:13:29;97925.22;;;1.99;100.00
7824;BME280;3957;48.61947800;9.05303100;2023-02-12T00:14:30;97930.31;;;2.02;100.00
7824;BME280;3957;48.61947800;9.05303100;2023-02-12T00:15:30;97928.31;;;2.06;100.00
7824;BME280;3957;48.61947800;9.05303100;2023-02-12T00:16:31;97925.47;;;2.09;100.00
7824;BME280;3957;48.61947800;9.05303100;2023-02-12T00:17:31;97924.81;;;2.05;100.00
7824;BME280;3957;48.61947800;9.05303100;2023-02-12T00:18:32;97922.63;;;2.12;100.00
7824;BME280;3957;48.61947800;9.05303100;2023-02-12T00:19:32;97922.72;;;2.10;100.00
7824;BME280;3957;48.61947800;9.05303100;2023-02-12T00:20:33;97929.50;;;2.14;100.00
7824;BME280;3957;48.61947800;9.05303100;2023-02-12T00:21:33;97924.22;;;2.14;100.00
7824;BME280;3957;48.61947800;9.05303100;2023-02-12T00:22:34;97924.41;;;2.11;100.00
7824;BME280;3957;48.61947800;9.05303100;2023-02-12T00:23:36;97928.84;;;2.11;100.00
7824;BME280;3957;48.61947800;9.05303100;2023-02-12T00:24:37;97933.41;;;2.09;100.00
7824;BME280;3957;48.61947800;9.05303100;2023-02-12T00:25:40;97935.28;;;2.07;100.00
7824;BME280;3957;48.61947800;9.05303100;2023-02-12T00:26:41;97936.34;;;2.04;100.00
7824;BME280;3957;48.61947800;9.05303100;2023-02-12T00:27:41;97931.81;;;2.06;100.00
7824;BME280;3957;48.61947800;9.05303100;2023-02-12T00:28:41;97928.53;;;2.02;100.00
7824;BME280;3957;48.61947800;9.05303100;2023-02-12T00:29:42;97934.56;;;2.04;100.00
7824;BME280;3957;48.61947800;9.05303100;2023-02-12T00:30:42;97935.94;;;2.10;100.00
7824;BME280;3957;48.61947800;9.05303100;2023-02-12T00:31:43;97934.97;;;2.11;100.00
7824;BME280;3957;48.61947800;9.05303100;2023-02-12T00:32:46;97935.06;;;2.10;100.00
7824;BME280;3957;48.61947800;9.05303100;2023-02-12T00:33:47;97939.63;;;2.08;100.00
7824;BME280;3957;48.61947800;9.05303100;2023-02-12T00:34:48;97939.72;;;2.06;100.00
7824;BME280;3957;48.61947800;9.05303100;2023-02-12T00:35:56;97936.97;;;2.08;100.00
7824;BME280;3957;48.61947800;9.05303100;2023-02-12T00:36:56;97945.84;;;2.07;100.00
7824;BME280;3957;48.61947800;9.05303100;2023-02-12T00:37:57;97942.47;;;2.04;100.00
7824;BME280;3957;48.61947800;9.05303100;2023-02-12T00:38:58;97942.56;;;2.03;100.00
7824;BME280;3957;48.61947800;9.05303100;2023-02-12T00:39:58;97942.66;;;2.01;100.00
7824;BME280;3957;48.61947800;9.05303100;2023-02-12T00:40:59;97945.41;;;2.00;100.00
7824;BME280;3957;48.61947800;9.05303100;2023-02-12T00:41:59;97939.63;;;1.95;100.00
7824;BME280;3957;48.61947800;9.05303100;2023-02-12T00:42:59;97933.59;;;1.93;100.00
7824;BME280;3957;48.61947800;9.05303100;2023-02-12T00:44:00;97946.88;;;1.91;100.00
7824;BME280;3957;48.61947800;9.05303100;2023-02-12T00:45:00;97941.72;;;1.90;100.00
7824;BME280;3957;48.61947800;9.05303100;2023-02-12T00:46:04;97944.47;;;1.88;100.00
7824;BME280;3957;48.61947800;9.05303100;2023-02-12T00:47:06;97935.78;;;1.86;100.00
7824;BME280;3957;48.61947800;9.05303100;2023-02-12T00:48:06;97942.97;;;1.84;100.00
7824;BME280;3957;48.61947800;9.05303100;2023-02-12T00:49:07;97938.53;;;1.72;100.00
7824;BME280;3957;48.61947800;9.05303100;2023-02-12T00:50:09;97939.22;;;1.61;100.00
7824;BME280;3957;48.61947800;9.05303100;2023-02-12T00:51:09;97941.31;;;1.56;100.00
7824;BME280;3957;48.61947800;9.05303100;2023-02-12T00:52:10;97942.81;;;1.60;100.00
7824;BME280;3957;48.61947800;9.05303100;2023-02-12T00:53:11;97943.66;;;1.60;100.00
7824;BME280;3957;48.61947800;9.05303100;2023-02-12T00:54:12;97938.41;;;1.60;100.00
7824;BME280;3957;48.61947800;9.05303100;2023-02-12T00:55:12;97933.94;;;1.61;100.00
7824;BME280;3957;48.61947800;9.05303100;2023-02-12T00:56:13;97941.75;;;1.62;100.00
7824;BME280;3957;48.61947800;9.05303100;2023-02-12T00:57:13;97947.03;;;1.62;100.00
7824;BME280;3957;48.61947800;9.05303100;2023-02-12T00:58:14;97940.81;;;1.63;100.00
7824;BME280;3957;48.61947800;9.05303100;2023-02-12T00:59:15;97952.22;;;1.64;100.00
7824;BME280;3957;48.61947800;9.05303100;2023-02-12T01:00:16;97943.34;;;1.65;100.00
7824;BME280;3957;48.61947800;9.05303100;2023-02-12T01:01:17;97948.53;;;1.66;100.00
7824;BME280;3957;48.61947800;9.05303100;2023-02-12T01:02:17;97947.47;;;1.69;100.00
7824;BME280;3957;48.61947800;9.05303100;2023-02-12T01:03:18;97945.78;;;1.68;100.00
7824;BME280;3957;48.61947800;9.05303100;2023-02-12T01:04:18;97951.16;;;1.66;100.00
7824;BME280;3957;48.61947800;9.05303100;2023-02-12T01:05:21;97944.19;;;1.65;100.00
7824;BME280;3957;48.61947800;9.05303100;2023-02-12T01:06:21;97947.81;;;1.64;100.00
7824;BME280;3957;48.61947800;9.05303100;2023-02-12T01:07:21;97951.38;;;1.63;100.00
7824;BME280;3957;48.61947800;9.05303100;2023-02-12T01:08:22;97957.50;;;1.64;100.00
7824;BME280;3957;48.61947800;9.05303100;2023-02-12T01:09:24;97954.84;;;1.64;100.00
7824;BME280;3957;48.61947800;9.05303100;2023-02-12T01:10:25;97957.59;;;1.62;100.00
7824;BME280;3957;48.61947800;9.05303100;2023-02-12T01:11:25;97953.34;;;1.60;100.00
7824;BME280;3957;48.61947800;9.05303100;2023-02-12T01:12:26;97948.84;;;1.62;100.00
7824;BME280;3957;48.61947800;9.05303100;2023-02-12T01:13:29;97949.03;;;1.59;100.00
7824;BME280;3957;48.61947800;9.05303100;2023-02-12T01:14:29;97947.34;;;1.58;100.00
7824;BME280;3957;48.61947800;9.05303100;2023-02-12T01:15:30;97942.09;;;1.58;100.00
7824;BME280;3957;48.61947800;9.05303100;2023-02-12T01:16:30;97949.22;;;1.56;100.00
7824;BME280;3957;48.61947800;9.05303100;2023-02-12T01:17:32;97940.47;;;1.55;100.00
7824;BME280;3957;48.61947800;9.05303100;2023-02-12T01:18:34;97945.66;;;1.57;100.00
7824;BME280;3957;48.61947800;9.05303100;2023-02-12T01:19:35;97946.59;;;1.56;100.00
7824;BME280;3957;48.61947800;9.05303100;2023-02-12T01:20:35;97952.75;;;1.56;100.00
7824;BME280;3957;48.61947800;9.05303100;2023-02-12T01:21:36;97944.72;;;1.58;100.00
7824;BME280;3957;48.61947800;9.05303100;2023-02-12T01:22:36;97956.00;;;1.60;100.00
7824;BME280;3957;48.61947800;9.05303100;2023-02-12T01:23:37;97950.94;;;1.57;100.00
7824;BME280;3957;48.61947800;9.05303100;2023-02-12T01:24:38;97950.00;;;1.58;100.00
7824;BME280;3957;48.61947800;9.05303100;2023-02-12T01:25:38;97948.19;;;1.58;100.00
7824;BME280;3957;48.61947800;9.05303100;2023-02-12T01:26:38;97949.13;;;1.57;100.00
7824;BME280;3957;48.61947800;9.05303100;2023-02-12T01:27:39;97943.75;;;1.59;100.00
7824;BME280;3957;48.61947800;9.05303100;2023-02-12T01:28:41;97951.66;;;1.59;100.00
7824;BME280;3957;48.61947800;9.05303100;2023-02-12T01:29:42;97951.59;;;1.60;100.00
7824;BME280;3957;48.61947800;9.05303100;2023-02-12T01:30:43;97946.22;;;1.62;100.00
7824;BME280;3957;48.61947800;9.05303100;2023-02-12T01:31:44;97939.13;;;1.62;100.00
7824;BME280;3957;48.61947800;9.05303100;2023-02-12T01:32:44;97947.97;;;1.61;100.00
7824;BME280;3957;48.61947800;9.05303100;2023-02-12T01:33:49;97941.03;;;1.60;100.00
7824;BME280;3957;48.61947800;9.05303100;2023-02-12T01:34:50;97946.31;;;1.60;100.00
7824;BME280;3957;48.61947800;9.05303100;2023-02-12T01:35:50;97950.63;;;1.61;100.00
7824;BME280;3957;48.61947800;9.05303100;2023-02-12T01:36:51;97948.84;;;1.62;100.00
7824;BME280;3957;48.61947800;9.05303100;2023-02-12T01:37:52;97950.63;;;1.61;100.00
7824;BME280;3957;48.61947800;9.05303100;2023-02-12T01:38:54;97946.09;;;1.63;100.00
7824;BME280;3957;48.61947800;9.05303100;2023-02-12T01:39:54;97945.25;;;1.63;100.00
7824;BME280;3957;48.61947800;9.05303100;2023-02-12T01:41:06;97945.16;;;1.64;100.00
7824;BME280;3957;48.61947800;9.05303100;2023-02-12T01:42:11;97945.16;;;1.64;100.00
7824;BME280;3957;48.61947800;9.05303100;2023-02-12T01:43:12;97946.09;;;1.63;100.00
7824;BME280;3957;48.61947800;9.05303100;2023-02-12T01:46:13;97949.56;;;1.64;100.00
7824;BME280;3957;48.61947800;9.05303100;2023-02-12T01:47:17;97950.50;;;1.63;100.00
7824;BME280;3957;48.61947800;9.05303100;2023-02-12T01:48:19;97948.28;;;1.57;100.00
7824;BME280;3957;48.61947800;9.05303100;2023-02-12T01:49:24;97945.44;;;1.60;100.00
7824;BME280;3957;48.61947800;9.05303100;2023-02-12T01:50:26;97943.66;;;1.60;100.00
7824;BME280;3957;48.61947800;9.05303100;2023-02-12T01:51:27;97951.47;;;1.62;100.00
7824;BME280;3957;48.61947800;9.05303100;2023-02-12T01:52:31;97954.13;;;1.62;100.00
7824;BME280;3957;48.61947800;9.05303100;2023-02-12T01:53:44;97958.63;;;1.60;100.00
7824;BME280;3957;48.61947800;9.05303100;2023-02-12T01:54:47;97953.34;;;1.60;100.00
7824;BME280;3957;48.61947800;9.05303100;2023-02-12T01:55:52;97945.56;;;1.58;100.00
7824;BME280;3957;48.61947800;9.05303100;2023-02-12T01:56:54;97947.25;;;1.59;100.00
7824;BME280;3957;48.61947800;9.05303100;2023-02-12T01:57:54;97948.41;;;1.55;100.00
7824;BME280;3957;48.61947800;9.05303100;2023-02-12T01:58:56;97949.22;;;1.56;100.00
7824;BME280;3957;48.61947800;9.05303100;2023-02-12T01:59:59;97943.34;;;1.52;100.00
7824;BME280;3957;48.61947800;9.05303100;2023-02-12T02:01:04;97955.09;;;1.46;100.00
7824;BME280;3957;48.61947800;9.05303100;2023-02-12T02:02:05;97949.94;;;1.45;100.00
7824;BME280;3957;48.61947800;9.05303100;2023-02-12T02:03:06;97947.72;;;1.39;100.00
7824;BME280;3957;48.61947800;9.05303100;2023-02-12T02:04:10;97944.03;;;1.41;100.00
7824;BME280;3957;48.61947800;9.05303100;2023-02-12T02:05:14;97948.34;;;1.42;100.00
7824;BME280;3957;48.61947800;9.05303100;2023-02-12T02:06:34;97942.13;;;1.43;100.00
7824;BME280;3957;48.61947800;9.05303100;2023-02-12T02:07:35;97940.16;;;1.47;100.00
7824;BME280;3957;48.61947800;9.05303100;2023-02-12T02:08:37;97944.56;;;1.46;100.00
7824;BME280;3957;48.61947800;9.05303100;2023-02-12T02:09:38;97942.69;;;1.48;100.00
7824;BME280;3957;48.61947800;9.05303100;2023-02-12T02:10:39;97937.41;;;1.48;100.00
7824;BME280;3957;48.61947800;9.05303100;2023-02-12T02:11:39;97934.75;;;1.48;100.00
7824;BME280;3957;48.61947800;9.05303100;2023-02-12T02:13:04;97937.41;;;1.48;100.00
7824;BME280;3957;48.61947800;9.05303100;2023-02-12T02:14:24;97944.38;;;1.49;100.00
7824;BME280;3957;48.61947800;9.05303100;2023-02-12T02:15:38;97947.00;;;1.49;100.00
7824;BME280;3957;48.61947800;9.05303100;2023-02-12T02:16:45;97939.94;;;1.50;100.00
7824;BME280;3957;48.61947800;9.05303100;2023-02-12T02:18:00;97947.84;;;1.50;100.00
7824;BME280;3957;48.61947800;9.05303100;2023-02-12T02:19:10;97937.28;;;1.50;100.00
7824;BME280;3957;48.61947800;9.05303100;2023-02-12T02:23:33;97934.56;;;1.51;100.00
7824;BME280;3957;48.61947800;9.05303100;2023-02-12T02:31:28;97925.81;;;1.51;100.00
7824;BME280;3957;48.61947800;9.05303100;2023-02-12T02:37:56;97919.97;;;1.46;100.00
7824;BME280;3957;48.61947800;9.05303100;2023-02-12T02:39:06;97928.84;;;1.45;100.00
7824;BME280;3957;48.61947800;9.05303100;2023-02-12T02:40:16;97931.47;;;1.45;100.00
7824;BME280;3957;48.61947800;9.05303100;2023-02-12T02:41:48;97921.88;;;1.44;100.00
7824;BME280;3957;48.61947800;9.05303100;2023-02-12T02:42:59;97919.16;;;1.45;100.00
7824;BME280;3957;48.61947800;9.05303100;2023-02-12T02:44:04;97922.72;;;1.44;100.00
7824;BME280;3957;48.61947800;9.05303100;2023-02-12T02:45:18;97923.56;;;1.45;100.00
7824;BME280;3957;48.61947800;9.05303100;2023-02-12T02:46:30;97917.34;;;1.46;100.00
7824;BME280;3957;48.61947800;9.05303100;2023-02-12T02:47:34;97914.69;;;1.46;100.00
7824;BME280;3957;48.61947800;9.05303100;2023-02-12T02:48:41;97913.88;;;1.45;100.00
7824;BME280;3957;48.61947800;9.05303100;2023-02-12T02:49:47;97911.22;;;1.45;100.00
7824;BME280;3957;48.61947800;9.05303100;2023-02-12T02:50:55;97911.22;;;1.45;100.00
7824;BME280;3957;48.61947800;9.05303100;2023-02-12T02:52:03;97911.22;;;1.45;100.00
7824;BME280;3957;48.61947800;9.05303100;2023-02-12T02:53:09;97912.91;;;1.46;100.00
7824;BME280;3957;48.61947800;9.05303100;2023-02-12T02:54:17;97907.63;;;1.46;100.00
7824;BME280;3957;48.61947800;9.05303100;2023-02-12T02:55:23;97914.50;;;1.49;100.00
7824;BME280;3957;48.61947800;9.05303100;2023-02-12T02:56:25;97914.50;;;1.49;100.00
7824;BME280;3957;48.61947800;9.05303100;2023-02-12T02:57:54;97911.84;;;1.49;100.00
7824;BME280;3957;48.61947800;9.05303100;2023-02-12T02:59:01;97911.75;;;1.50;100.00
7824;BME280;3957;48.61947800;9.05303100;2023-02-12T03:00:13;97913.44;;;1.51;100.00
7824;BME280;3957;48.61947800;9.05303100;2023-02-12T03:01:21;97912.28;;;1.56;100.00
7824;BME280;3957;48.61947800;9.05303100;2023-02-12T03:02:36;97913.69;;;1.61;100.00
7824;BME280;3957;48.61947800;9.05303100;2023-02-12T03:03:43;97906.63;;;1.62;100.00
7824;BME280;3957;48.61947800;9.05303100;2023-02-12T03:04:50;97909.16;;;1.63;100.00
7824;BME280;3957;48.61947800;9.05303100;2023-02-12T03:05:54;97909.44;;;1.59;100.00
7824;BME280;3957;48.61947800;9.05303100;2023-02-12T03:07:03;97910.22;;;1.61;100.00
7824;BME280;3957;48.61947800;9.05303100;2023-02-12T03:08:15;97907.25;;;1.65;100.00
7824;BME280;3957;48.61947800;9.05303100;2023-02-12T03:09:50;97915.28;;;1.64;100.00
7824;BME280;3957;48.61947800;9.05303100;2023-02-12T03:10:53;97916.03;;;1.66;100.00
7824;BME280;3957;48.61947800;9.05303100;2023-02-12T03:11:59;97915.72;;;1.70;100.00
7824;BME280;3957;48.61947800;9.05303100;2023-02-12T03:13:07;97912.41;;;1.67;100.00
7824;BME280;3957;48.61947800;9.05303100;2023-02-12T03:14:11;97909.88;;;1.65;100.00
7824;BME280;3957;48.61947800;9.05303100;2023-02-12T03:15:29;97914.22;;;1.66;100.00
7824;BME280;3957;48.61947800;9.05303100;2023-02-12T03:17:01;97914.88;;;1.70;100.00
7824;BME280;3957;48.61947800;9.05303100;2023-02-12T03:18:00;97910.66;;;1.67;100.00
7824;BME280;3957;48.61947800;9.05303100;2023-02-12T03:19:08;97917.19;;;1.62;100.00
7824;BME280;3957;48.61947800;9.05303100;2023-02-12T03:21:16;97917.19;;;1.62;100.00
7824;BME280;3957;48.61947800;9.05303100;2023-02-12T03:22:22;97905.75;;;1.48;100.00
7824;BME280;3957;48.61947800;9.05303100;2023-02-12T03:23:28;97922.38;;;1.36;100.00
7824;BME280;3957;48.61947800;9.05303100;2023-02-12T03:24:47;97911.59;;;1.26;100.00
7824;BME280;3957;48.61947800;9.05303100;2023-02-12T03:27:12;97924.13;;;1.23;100.00
7824;BME280;3957;48.61947800;9.05303100;2023-02-12T03:28:20;97933.63;;;1.25;100.00
7824;BME280;3957;48.61947800;9.05303100;2023-02-12T03:29:22;97927.41;;;1.26;100.00
7824;BME280;3957;48.61947800;9.05303100;2023-02-12T03:30:24;97927.31;;;1.28;100.00
7824;BME280;3957;48.61947800;9.05303100;2023-02-12T03:31:54;97922.88;;;1.28;100.00
7824;BME280;3957;48.61947800;9.05303100;2023-02-12T03:33:19;97924.78;;;1.26;100.00
7824;BME280;3957;48.61947800;9.05303100;2023-02-12T03:35:39;97930.72;;;1.30;100.00
7824;BME280;3957;48.61947800;9.05303100;2023-02-12T03:38:19;97925.31;;;1.31;100.00
7824;BME280;3957;48.61947800;9.05303100;2023-02-12T03:39:52;97931.66;;;1.29;100.00
7824;BME280;3957;48.61947800;9.05303100;2023-02-12T03:41:04;97921.09;;;1.29;100.00
7824;BME280;3957;48.61947800;9.05303100;2023-02-12T03:42:37;97934.19;;;1.30;100.00
7824;BME280;3957;48.61947800;9.05303100;2023-02-12T03:44:52;97923.63;;;1.30;100.00
7824;BME280;3957;48.61947800;9.05303100;2023-02-12T03:46:07;97922.78;;;1.30;100.00
7824;BME280;3957;48.61947800;9.05303100;2023-02-12T03:47:23;97929.75;;;1.31;100.00
7824;BME280;3957;48.61947800;9.05303100;2023-02-12T03:48:37;97926.28;;;1.30;100.00
7824;BME280;3957;48.61947800;9.05303100;2023-02-12T03:49:50;97925.31;;;1.31;100.00
7824;BME280;3957;48.61947800;9.05303100;2023-02-12T03:51:52;97924.78;;;1.26;100.00
7824;BME280;3957;48.61947800;9.05303100;2023-02-12T03:52:53;97924.66;;;1.28;100.00
7824;BME280;3957;48.61947800;9.05303100;2023-02-12T03:53:55;97925.72;;;1.25;100.00
7824;BME280;3957;48.61947800;9.05303100;2023-02-12T03:54:56;97927.31;;;1.28;100.00
7824;BME280;3957;48.61947800;9.05303100;2023-02-12T03:56:08;97923.84;;;1.27;100.00
7824;BME280;3957;48.61947800;9.05303100;2023-02-12T03:57:16;97928.06;;;1.30;100.00
7824;BME280;3957;48.61947800;9.05303100;2023-02-12T03:58:20;97919.94;;;1.33;100.00
7824;BME280;3957;48.61947800;9.05303100;2023-02-12T03:59:24;97924.34;;;1.32;100.00
7824;BME280;3957;48.61947800;9.05303100;2023-02-12T04:00:25;97925.22;;;1.33;100.00
7824;BME280;3957;48.61947800;9.05303100;2023-02-12T04:01:26;97918.97;;;1.34;100.00
7824;BME280;3957;48.61947800;9.05303100;2023-02-12T04:02:26;97924.19;;;1.35;100.00
7824;BME280;3957;48.61947800;9.05303100;2023-02-12T04:03:29;97929.34;;;1.37;100.00
7824;BME280;3957;48.61947800;9.05303100;2023-02-12T04:04:30;97928.50;;;1.36;100.00
7824;BME280;3957;48.61947800;9.05303100;2023-02-12T04:05:30;97928.50;;;1.36;100.00
7824;BME280;3957;48.61947800;9.05303100;2023-02-12T04:06:31;97933.75;;;1.36;100.00
7824;BME280;3957;48.61947800;9.05303100;2023-02-12T04:07:32;97931.22;;;1.35;100.00
7824;BME280;3957;48.61947800;9.05303100;2023-02-12T04:08:33;97931.22;;;1.35;100.00
7824;BME280;3957;48.61947800;9.05303100;2023-02-12T04:09:33;97933.75;;;1.36;100.00
7824;BME280;3957;48.61947800;9.05303100;2023-02-12T04:11:58;97929.34;;;1.37;100.00
7824;BME280;3957;48.61947800;9.05303100;2023-02-12T04:13:08;97933.66;;;1.38;100.00
7824;BME280;3957;48.61947800;9.05303100;2023-02-12T04:14:28;97932.00;;;1.37;100.00
7824;BME280;3957;48.61947800;9.05303100;2023-02-12T04:15:50;97933.66;;;1.38;100.00
7824;BME280;3957;48.61947800;9.05303100;2023-02-12T04:18:16;97938.94;;;1.38;100.00
7824;BME280;3957;48.61947800;9.05303100;2023-02-12T04:19:25;97939.81;;;1.39;100.00
7824;BME280;3957;48.61947800;9.05303100;2023-02-12T04:21:49;97942.44;;;1.39;100.00
7824;BME280;3957;48.61947800;9.05303100;2023-02-12T04:23:04;97943.16;;;1.41;100.00
7824;BME280;3957;48.61947800;9.05303100;2023-02-12T04:24:17;97942.22;;;1.42;100.00
7824;BME280;3957;48.61947800;9.05303100;2023-02-12T04:26:54;97941.28;;;1.43;100.00
7824;BME280;3957;48.61947800;9.05303100;2023-02-12T04:29:19;97948.44;;;1.41;100.00
7824;BME280;3957;48.61947800;9.05303100;2023-02-12T04:30:24;97946.84;;;1.38;100.00
7824;BME280;3957;48.61947800;9.05303100;2023-02-12T04:32:42;97952.31;;;1.35;100.00
7824;BME280;3957;48.61947800;9.05303100;2023-02-12T04:33:55;97953.19;;;1.35;100.00
7824;BME280;3957;48.61947800;9.05303100;2023-02-12T04:35:02;97951.50;;;1.34;100.00
7824;BME280;3957;48.61947800;9.05303100;2023-02-12T04:36:11;97952.31;;;1.35;100.00
7824;BME280;3957;48.61947800;9.05303100;2023-02-12T04:38:31;97953.94;;;1.38;100.00
7824;BME280;3957;48.61947800;9.05303100;2023-02-12T04:39:36;97951.50;;;1.34;100.00
7824;BME280;3957;48.61947800;9.05303100;2023-02-12T04:40:39;97954.13;;;1.34;100.00
7824;BME280;3957;48.61947800;9.05303100;2023-02-12T04:41:40;97954.34;;;1.31;100.00
7824;BME280;3957;48.61947800;9.05303100;2023-02-12T04:42:48;97953.47;;;1.31;100.00
7824;BME280;3957;48.61947800;9.05303100;2023-02-12T04:43:49;97950.00;;;1.30;100.00
7824;BME280;3957;48.61947800;9.05303100;2023-02-12T04:44:49;97950.09;;;1.29;100.00
7824;BME280;3957;48.61947800;9.05303100;2023-02-12T04:45:50;97957.25;;;1.27;100.00
7824;BME280;3957;48.61947800;9.05303100;2023-02-12T04:46:51;97950.31;;;1.26;100.00
7824;BME280;3957;48.61947800;9.05303100;2023-02-12T04:47:52;97953.88;;;1.25;100.00
7824;BME280;3957;48.61947800;9.05303100;2023-02-12T04:48:55;97953.88;;;1.25;100.00
7824;BME280;3957;48.61947800;9.05303100;2023-02-12T04:49:56;97957.47;;;1.24;100.00
7824;BME280;3957;48.61947800;9.05303100;2023-02-12T04:50:57;97952.59;;;1.17;100.00
7824;BME280;3957;48.61947800;9.05303100;2023-02-12T04:51:57;97957.88;;;1.17;100.00
7824;BME280;3957;48.61947800;9.05303100;2023-02-12T04:52:57;97956.91;;;1.18;100.00
7824;BME280;3957;48.61947800;9.05303100;2023-02-12T04:53:58;97959.63;;;1.17;100.00
7824;BME280;3957;48.61947800;9.05303100;2023-02-12T04:55:00;97959.63;;;1.17;100.00
7824;BME280;3957;48.61947800;9.05303100;2023-02-12T04:56:00;97953.75;;;1.13;100.00
7824;BME280;3957;48.61947800;9.05303100;2023-02-12T04:57:01;97957.09;;;1.15;100.00
7824;BME280;3957;48.61947800;9.05303100;2023-02-12T04:58:02;97951.84;;;1.15;100.00
7824;BME280;3957;48.61947800;9.05303100;2023-02-12T04:59:03;97954.47;;;1.15;100.00
7824;BME280;3957;48.61947800;9.05303100;2023-02-12T05:00:05;97957.94;;;1.16;100.00
7824;BME280;3957;48.61947800;9.05303100;2023-02-12T05:01:06;97953.44;;;1.18;100.00
7824;BME280;3957;48.61947800;9.05303100;2023-02-12T05:02:06;97956.91;;;1.18;100.00
7824;BME280;3957;48.61947800;9.05303100;2023-02-12T05:03:06;97949.97;;;1.17;100.00
7824;BME280;3957;48.61947800;9.05303100;2023-02-12T05:04:08;97952.59;;;1.17;100.00
7824;BME280;3957;48.61947800;9.05303100;2023-02-12T05:05:09;97951.72;;;1.17;100.00
7824;BME280;3957;48.61947800;9.05303100;2023-02-12T05:06:10;97957.09;;;1.15;100.00
7824;BME280;3957;48.61947800;9.05303100;2023-02-12T05:07:10;97953.75;;;1.13;100.00
7824;BME280;3957;48.61947800;9.05303100;2023-02-12T05:08:11;97955.41;;;1.14;100.00
7824;BME280;3957;48.61947800;9.05303100;2023-02-12T05:09:14;97954.69;;;1.12;100.00
7824;BME280;3957;48.61947800;9.05303100;2023-02-12T05:10:15;97951.28;;;1.10;100.00
7824;BME280;3957;48.61947800;9.05303100;2023-02-12T05:11:15;97969.09;;;1.07;100.00
7824;BME280;3957;48.61947800;9.05303100;2023-02-12T05:12:16;97956.84;;;1.06;100.00
7824;BME280;3957;48.61947800;9.05303100;2023-02-12T05:13:16;97955.16;;;1.05;100.00
7824;BME280;3957;48.61947800;9.05303100;2023-02-12T05:14:16;97956.09;;;1.04;100.00
7824;BME280;3957;48.61947800;9.05303100;2023-02-12T05:15:17;97962.22;;;1.04;100.00
7824;BME280;3957;48.61947800;9.05303100;2023-02-12T05:16:19;97953.44;;;1.04;100.00
7824;BME280;3957;48.61947800;9.05303100;2023-02-12T05:17:22;97961.28;;;1.05;100.00
7824;BME280;3957;48.61947800;9.05303100;2023-02-12T05:18:22;97958.66;;;1.05;100.00
7824;BME280;3957;48.61947800;9.05303100;2023-02-12T05:19:23;97953.38;;;1.05;100.00
7824;BME280;3957;48.61947800;9.05303100;2023-02-12T05:20:23;97950.75;;;1.05;100.00
7824;BME280;3957;48.61947800;9.05303100;2023-02-12T05:21:24;97949.03;;;1.04;100.00
7824;BME280;3957;48.61947800;9.05303100;2023-02-12T05:22:24;97952.53;;;1.05;100.00
7824;BME280;3957;48.61947800;9.05303100;2023-02-12T05:23:26;97949.03;;;1.04;100.00
7824;BME280;3957;48.61947800;9.05303100;2023-02-12T05:24:27;97946.41;;;1.04;100.00
7824;BME280;3957;48.61947800;9.05303100;2023-02-12T05:25:27;97945.47;;;1.05;100.00
7824;BME280;3957;48.61947800;9.05303100;2023-02-12T05:26:28;97947.25;;;1.05;100.00
7824;BME280;3957;48.61947800;9.05303100;2023-02-12T05:27:28;97953.38;;;1.05;100.00
7824;BME280;3957;48.61947800;9.05303100;2023-02-12T05:28:29;97945.47;;;1.05;100.00
7824;BME280;3957;48.61947800;9.05303100;2023-02-12T05:29:29;97947.25;;;1.05;100.00
7824;BME280;3957;48.61947800;9.05303100;2023-02-12T05:30:30;97947.25;;;1.05;100.00
7824;BME280;3957;48.61947800;9.05303100;2023-02-12T05:31:30;97949.88;;;1.05;100.00
7824;BME280;3957;48.61947800;9.05303100;2023-02-12T05:32:30;97950.75;;;1.05;100.00
7824;BME280;3957;48.61947800;9.05303100;2023-02-12T05:33:31;97949.88;;;1.05;100.00
7824;BME280;3957;48.61947800;9.05303100;2023-02-12T05:34:32;97956.03;;;1.05;100.00
7824;BME280;3957;48.61947800;9.05303100;2023-02-12T05:35:34;97952.53;;;1.05;100.00
7824;BME280;3957;48.61947800;9.05303100;2023-02-12T05:36:34;97960.44;;;1.05;100.00
7824;BME280;3957;48.61947800;9.05303100;2023-02-12T05:37:35;97954.31;;;1.04;100.00
7824;BME280;3957;48.61947800;9.05303100;2023-02-12T05:38:36;97955.16;;;1.05;100.00
7824;BME280;3957;48.61947800;9.05303100;2023-02-12T05:39:36;97961.19;;;1.07;100.00
7824;BME280;3957;48.61947800;9.05303100;2023-02-12T05:40:37;97950.75;;;1.05;100.00